• Join FlightAware (Why Join?)
  • Login
  • US Flag 
08:48PM EDT


 

Airport Tracker/Info


-or-


 

Live Flight TrackerFlight Track Log ✈ N7386R ✈ 30-Apr-2014 ✈ KLSE - KSUZ

Flight Track Log - Related Links

Times and Time Zones

All times are in EDT time to prevent confusion due to time zone crossing. See the N7386R flight status page for this flight to view local times or setup timezone preferences in your user account.

Time Position Orientation Groundspeed Altitude Reporting Facility
EDT Latitude Longitude Course Direction KTS MPH feet Rate Location/Type
09:59PM 43.8317 -91.2419 189° South 125 144 3,700  Level Minneapolis Center
10:00PM 43.7950 -91.2478 187° South 125 144 4,600 840 Climbing Minneapolis Center
10:01PM 43.7572 -91.2544 187° South 127 146 5,500 660 Climbing Minneapolis Center
10:02PM 43.5990 -91.2988 185° South  Level Estimated
10:02PM 43.7211 -91.2572 183° South 131 151 6,000  Level Minneapolis Center
10:03PM 43.5521 -91.3030 184° South  Level FlightAware Approximate
10:03PM 43.6736 -91.2619 184° South 160 184 6,100  Level Minneapolis Center
10:04PM 43.6231 -91.2694 186° South 171 197 6,000  Descending Minneapolis Center
10:05PM 43.5719 -91.2786 187° South 175 201 6,100  Climbing Minneapolis Center
10:06PM 43.5250 -91.2842 185° South 175 201 6,100  Level Minneapolis Center
10:07PM 43.4731 -91.2925 187° South 176 203 6,100  Level Minneapolis Center
10:08PM 43.4217 -91.3000 186° South 177 204 6,100  Level Minneapolis Center
10:09PM 43.3714 -91.3086 187° South 176 203 6,100  Level Minneapolis Center
10:10PM 43.3239 -91.3142 185° South 176 203 6,100  Level Minneapolis Center
10:11PM 43.2731 -91.3225 187° South 176 203 6,100  Level Minneapolis Center
10:12PM 43.2258 -91.3300 187° South 176 203 6,100  Level Minneapolis Center
10:13PM 43.1769 -91.3367 186° South 176 203 6,100  Level Minneapolis Center
10:14PM 43.1281 -91.3450 187° South 176 203 6,100  Level Minneapolis Center
10:15PM 43.0794 -91.3517 186° South 177 204 6,100 240 Level Minneapolis Center
10:16PM 43.0214 -91.3611 187° South 176 203 6,600 720 Climbing Minneapolis Center
10:17PM 42.9783 -91.3672 186° South 169 194 7,700 900 Climbing Minneapolis Center
10:18PM 42.9400 -91.3733 187° South 155 178 8,500 780 Climbing Minneapolis Center
10:19PM 42.9172 -91.3772 187° South 147 169 9,100 720 Climbing Chicago Center
10:20PM 42.8692 -91.3853 187° South 143 165 9,800 780 Climbing Chicago Center
10:21PM 42.8278 -91.3911 186° South 146 168 10,700 660 Climbing Chicago Center
10:22PM 42.7897 -91.3975 187° South 144 166 11,200 480 Climbing Chicago Center
10:23PM 42.7481 -91.4031 186° South 145 167 11,700 360 Climbing Chicago Center
10:24PM 42.7058 -91.4097 187° South 148 170 12,000 120 Climbing Chicago Center
10:25PM 42.6592 -91.4164 186° South 158 182 12,000 240 Level Chicago Center
10:26PM 42.6158 -91.4219 185° South 157 181 12,600 360 Climbing Chicago Center
10:27PM 42.5778 -91.4286 187° South 143 165 12,800 240 Climbing Chicago Center
10:28PM 42.5378 -91.4336 185° South 143 165 13,200 300 Climbing Chicago Center
10:29PM 42.4978 -91.4389 186° South 144 166 13,500 300 Climbing Chicago Center
10:30PM 42.4506 -91.4456 186° South 144 166 13,900 180 Climbing Chicago Center
10:31PM 42.4081 -91.4531 187° South 150 173 13,900  Level Chicago Center
10:32PM 42.3628 -91.4600 186° South 160 184 14,000  Climbing Chicago Center
10:33PM 42.3172 -91.4672 187° South 162 186 14,000 -60 Level Chicago Center
10:34PM 42.2711 -91.4733 186° South 166 191 13,900 -60 Descending Chicago Center
10:35PM 42.2253 -91.4794 186° South 168 193 13,900  Level Chicago Center
10:36PM 42.1789 -91.4872 187° South 167 192 13,900  Level Chicago Center
10:37PM 42.1333 -91.4906 183° South 167 192 14,000  Climbing Chicago Center
10:38PM 42.0764 -91.5022 189° South 168 193 14,000  Level Chicago Center
10:39PM 42.0294 -91.5089 186° South 169 194 14,000  Level Chicago Center
10:40PM 41.9825 -91.5144 185° South 170 196 14,000 -60 Level Chicago Center
10:42PM 41.9361 -91.5225 187° South 170 196 13,900  Descending Chicago Center
10:43PM 41.8906 -91.5283 185° South 169 194 14,000  Climbing Chicago Center
10:44PM 41.8456 -91.5356 187° South 168 193 13,900  Descending Chicago Center
10:45PM 41.8008 -91.5408 185° South 166 191 14,000  Climbing Chicago Center
10:46PM 41.7544 -91.5486 187° South 167 192 14,000 -60 Level Chicago Center
10:47PM 41.7086 -91.5536 185° South 167 192 13,900  Descending Chicago Center
10:48PM 41.6542 -91.5614 186° South 166 191 14,000  Climbing Chicago Center
10:49PM 41.6075 -91.5686 187° South 169 194 14,000  Level Chicago Center
10:50PM 41.5608 -91.5753 186° South 169 194 14,000  Level Chicago Center
10:51PM 41.5136 -91.5825 187° South 171 197 14,000  Level Chicago Center
10:52PM 41.4667 -91.5897 187° South 171 197 14,100  Climbing Chicago Center
10:53PM 41.4206 -91.5964 186° South 170 196 14,100  Level Chicago Center
10:54PM 41.3742 -91.6056 188° South 170 196 14,100  Level Chicago Center
10:55PM 41.3286 -91.6097 184° South 169 194 14,100  Level Chicago Center
10:56PM 41.2847 -91.6164 187° South 165 190 14,100 -60 Level Chicago Center
10:57PM 41.2317 -91.6233 186° South 160 184 14,000 -60 Descending Chicago Center
10:58PM 41.1869 -91.6294 186° South 160 184 14,000  Level Chicago Center
10:59PM 41.1419 -91.6347 185° South 160 184 14,000  Level Chicago Center
11:00PM 41.0986 -91.6419 187° South 158 182 14,100  Climbing Chicago Center
11:01PM 41.0550 -91.6469 185° South 158 182 14,000  Descending Chicago Center
11:02PM 41.0114 -91.6533 186° South 158 182 14,100  Climbing Chicago Center
11:03PM 40.9650 -91.6603 186° South 157 181 14,000 -60 Descending Chicago Center
11:04PM 40.9217 -91.6664 186° South 157 181 14,000  Level Chicago Center
11:05PM 40.8783 -91.6714 185° South 157 181 14,100  Climbing Chicago Center
11:06PM 40.8350 -91.6778 186° South 157 181 14,000  Descending Chicago Center
11:07PM 40.7914 -91.6844 187° South 157 181 14,100  Climbing Chicago Center
11:08PM 40.7478 -91.6900 186° South 157 181 14,000 -60 Descending Chicago Center
11:09PM 40.7039 -91.6961 186° South 158 182 14,000  Level Chicago Center
11:10PM 40.6597 -91.7033 187° South 159 183 14,100  Climbing Chicago Center
11:11PM 40.6078 -91.7097 185° South 159 183 14,000  Descending Chicago Center
11:12PM 40.5639 -91.7147 185° South 158 182 14,100  Climbing Chicago Center
11:13PM 40.5203 -91.7225 188° South 158 182 14,100  Level Chicago Center
11:14PM 40.4764 -91.7281 185° South 159 183 14,100  Level Chicago Center
11:15PM 40.4328 -91.7344 186° South 158 182 14,100  Level Chicago Center
11:16PM 40.3892 -91.7411 187° South 158 182 14,100  Level Chicago Center
11:17PM 40.3347 -91.7464 184° South 159 183 14,200  Climbing Kansas City Center
11:18PM 40.2892 -91.7519 185° South 160 184 14,200  Level Kansas City Center
11:19PM 40.2442 -91.7594 187° South 162 186 14,200  Level Kansas City Center
11:20PM 40.1997 -91.7653 186° South 162 186 14,200  Level Kansas City Center
11:21PM 40.1547 -91.7717 186° South 162 186 14,200  Level Kansas City Center
11:22PM 40.1103 -91.7783 187° South 162 186 14,200  Level Kansas City Center
11:23PM 40.0658 -91.7842 186° South 162 186 14,200  Level Kansas City Center
11:24PM 40.0208 -91.7906 186° South 162 186 14,200 -240 Level Kansas City Center
11:25PM 39.9656 -91.7983 186° South 162 186 13,800 -540 Descending Kansas City Center
11:26PM 39.9161 -91.8047 186° South 172 198 13,200 -540 Descending Kansas City Center
11:27PM 39.8644 -91.8128 187° South 181 208 12,700 -540 Descending Kansas City Center
11:28PM 39.8119 -91.8200 186° South 185 213 12,200 -540 Descending Kansas City Center
11:29PM 39.7592 -91.8269 186° South 187 215 11,700 -420 Descending Kansas City Center
11:31PM 39.7058 -91.8347 186° South 190 219 11,400 -360 Descending Kansas City Center
11:32PM 39.6525 -91.8419 186° South 190 219 11,000 -360 Descending Kansas City Center
11:33PM 39.6003 -91.8481 185° South 190 219 10,700 -420 Descending Kansas City Center
11:34PM 39.5367 -91.8561 186° South 191 220 10,200 -480 Descending Kansas City Center
11:34PM 39.4950 -91.8628 187° South 187 215 9,900 -360 Descending Kansas City Center
11:36PM 39.4342 -91.8708 186° South 189 217 9,500 -420 Descending Kansas City Center
11:37PM 39.3828 -91.8769 185° South 188 216 9,000 -480 Descending Kansas City Center
11:38PM 39.3317 -91.8836 186° South 188 216 8,600 -420 Descending Kansas City Center
11:38PM 39.2892 -91.8914 188° South 183 211 8,300 -300 Descending Kansas City Center
11:39PM 39.2808 -91.8925 186° South 187 215 8,300 -420 Level Kansas City Center
11:40PM 39.2269 -91.8975 184° South 187 215 7,800 -420 Descending Kansas City Center
11:41PM 39.1764 -91.9039 186° South 186 214 7,500 -360 Descending Kansas City Center
11:42PM 39.1242 -91.9119 187° South 186 214 7,100 -420 Descending Kansas City Center
11:42PM 39.0814 -91.9175 186° South 181 208 6,800 -420 Descending Kansas City Center
11:43PM 39.0639 -91.9203 187° South 186 214 6,700 -420 Descending Kansas City Center
11:44PM 39.0131 -91.9267 186° South 183 211 6,300 -360 Descending Kansas City Center
11:45PM 38.9611 -91.9328 185° South 184 212 6,000 -120 Descending Kansas City Center
11:46PM 38.9119 -91.9392 186° South 181 208 6,100 60 Climbing Kansas City Center
11:46PM 38.8839 -91.9428 186° South 173 199 6,100  Level Kansas City Center
11:47PM 38.8642 -91.9453 186° South 179 206 6,100  Level Kansas City Center
11:48PM 38.8161 -91.9522 186° South 176 203 6,100  Level Kansas City Center
11:49PM 38.7678 -91.9586 186° South 176 203 6,100  Level Kansas City Center
11:50PM 38.7203 -91.9644 185° South 175 201 6,100  Level Kansas City Center
11:50PM 38.6906 -91.9681 185° South 172 198 6,100  Level Kansas City Center
11:51PM 38.6731 -91.9717 189° South 173 199 6,100  Level Kansas City Center
11:52PM 38.6267 -91.9764 185° South 172 198 6,100  Level Kansas City Center
11:53PM 38.5794 -91.9828 186° South 172 198 6,100  Level Kansas City Center
11:54PM 38.5325 -91.9894 186° South 172 198 6,100  Level Kansas City Center
11:54PM 38.5056 -91.9925 185° South 170 196 6,100  Level Kansas City Center
11:55PM 38.4853 -91.9958 187° South 172 198 6,100  Level Kansas City Center
11:56PM 38.4375 -92.0019 186° South 171 197 6,100  Level Kansas City Center
11:57PM 38.3897 -92.0078 185° South 172 198 6,100  Level Kansas City Center
11:58PM 38.3328 -92.0161 187° South 171 197 6,100  Level Kansas City Center
11:59PM 38.2864 -92.0219 186° South 170 196 6,100  Level Kansas City Center
12:00AM 38.2389 -92.0286 186° South 170 196 6,100  Level Kansas City Center
12:01AM 38.1906 -92.0344 185° South 170 196 6,100  Level Kansas City Center
12:02AM 38.1419 -92.0400 185° South 171 197 6,200  Climbing Kansas City Center
12:03AM 38.0931 -92.0464 186° South 172 198 6,200  Level Kansas City Center
12:04AM 38.0439 -92.0533 186° South 172 198 6,200  Level Kansas City Center
12:05AM 37.9939 -92.0589 185° South 173 199 6,200  Level Kansas City Center
12:06AM 37.9447 -92.0658 186° South 176 203 6,200 -60 Level Kansas City Center
12:07AM 37.8936 -92.0722 186° South 177 204 6,100 -60 Descending Kansas City Center
12:08AM 37.8436 -92.0786 186° South 177 204 6,100  Level Kansas City Center
12:09AM 37.7925 -92.0856 186° South 178 205 6,100  Level Kansas City Center
12:10AM 37.7428 -92.0928 187° South 179 206 6,100  Level Kansas City Center
12:11AM 37.6911 -92.0975 184° South 179 206 6,100  Level Kansas City Center
12:12AM 37.6406 -92.1047 186° South 179 206 6,200  Climbing Kansas City Center
12:13AM 37.5897 -92.1117 186° South 180 207 6,200  Level Kansas City Center
12:14AM 37.5392 -92.1183 186° South 180 207 6,200  Level Kansas City Center
12:15AM 37.4886 -92.1244 185° South 180 207 6,200  Level Kansas City Center
12:16AM 37.4381 -92.1303 185° South 180 207 6,200  Level Kansas City Center
12:17AM 37.3872 -92.1369 186° South 180 207 6,200  Level Kansas City Center
12:18AM 37.3369 -92.1433 186° South 180 207 6,200  Level Kansas City Center
12:19AM 37.2864 -92.1494 185° South 180 207 6,200  Level Kansas City Center
12:20AM 37.2358 -92.1564 186° South 180 207 6,200  Level Kansas City Center
12:21AM 37.1847 -92.1622 185° South 181 208 6,200  Level Kansas City Center
12:22AM 37.1336 -92.1692 186° South 181 208 6,200  Level Kansas City Center
12:23AM 37.0831 -92.1758 186° South 181 208 6,200  Level Kansas City Center
12:24AM 37.0317 -92.1822 186° South 181 208 6,200  Level Kansas City Center
12:25AM 36.9703 -92.1903 186° South 182 209 6,200  Level Kansas City Center
12:27AM 36.9192 -92.1958 185° South 182 209 6,200  Level Kansas City Center
12:28AM 36.8675 -92.2022 186° South 182 209 6,200  Level Kansas City Center
12:29AM 36.8158 -92.2081 185° South 182 209 6,200  Level Kansas City Center
12:30AM 36.7650 -92.2164 187° South 182 209 6,200  Level Kansas City Center
12:31AM 36.7139 -92.2228 186° South 182 209 6,200  Level Kansas City Center
12:32AM 36.6614 -92.2289 185° South 183 211 6,200  Level Kansas City Center
12:33AM 36.6106 -92.2350 186° South 184 212 6,200  Level Kansas City Center
12:34AM 36.5581 -92.2408 185° South 184 212 6,200  Level Kansas City Center
12:35AM 36.5069 -92.2483 187° South 184 212 6,200  Level Kansas City Center
12:36AM 36.4553 -92.2539 185° South 184 212 6,200  Level Kansas City Center
12:37AM 36.4025 -92.2611 186° South 185 213 6,200  Level Kansas City Center
12:38AM 36.3522 -92.2669 185° South 186 214 6,200  Level Kansas City Center
12:39AM 36.3000 -92.2758 188° South 187 215 6,200  Level Kansas City Center
12:40AM 36.2408 -92.2825 185° South 187 215 6,200  Level Kansas City Center
12:41AM 36.1936 -92.2833 181° South 188 216 6,200  Level Kansas City Center
12:44AM 36.0067 -92.3067 186° South 193 222 6,200  Level Memphis Center
12:45AM 35.9556 -92.3153 188° South 185 213 6,200  Level Memphis Center
12:46AM 35.9053 -92.3214 186° South 185 213 6,200  Level Memphis Center
12:47AM 35.8533 -92.3272 185° South 185 213 6,200  Level Memphis Center
12:48AM 35.8008 -92.3339 186° South 185 213 6,200  Level Memphis Center
12:49AM 35.7486 -92.3406 186° South 186 214 6,200  Level Memphis Center
12:50AM 35.6972 -92.3472 186° South 186 214 6,200  Level Memphis Center
12:51AM 35.6469 -92.3531 185° South 186 214 6,200  Level Memphis Center
12:52AM 35.5961 -92.3586 185° South 185 213 6,200  Level Memphis Center
12:53AM 35.5436 -92.3647 185° South 185 213 6,200  Level Memphis Center
12:54AM 35.4889 -92.3722 186° South 187 215 6,200  Level Memphis Center
12:55AM 35.4369 -92.3781 185° South 185 213 6,200  Level Memphis Center
12:56AM 35.3872 -92.3836 185° South 186 214 6,200  Level Memphis Center
12:57AM 35.3369 -92.3906 186° South 185 213 6,200  Level Memphis Center
12:58AM 35.2792 -92.3981 186° South 186 214 6,200  Level Memphis Center
12:59AM 35.2292 -92.4036 185° South 187 215 6,200 -180 Level Memphis Center
01:00AM 35.1731 -92.4097 185° South 192 221 5,900 -360 Descending Memphis Center
01:01AM 35.1189 -92.4156 185° South 200 230 5,500 -420 Descending Memphis Center
01:02AM 35.0628 -92.4239 187° South 199 229 5,100 -420 Descending Memphis Center
01:03AM 35.0108 -92.4297 185° South 195 224 4,700 -480 Descending Memphis Center
01:04AM 34.9525 -92.4358 185° South 196 226 4,200 -360 Descending Memphis Center
01:05AM 34.8986 -92.4442 187° South 192 221 4,000 -480 Descending Memphis Center
01:06AM 34.8467 -92.4497 185° South 189 217 3,300 -360 Descending Memphis Center
01:07AM 34.7956 -92.4550 185° South 193 222 3,300  Level Memphis Center